Caribbean Princess — ZCDG8 — position and weather

sailwx.info

Track history (hours):
 
Tides and Currents Weather Stations Pressure Air Temp Water Temp Dewpoint Dewpoint Depression Visibility Wind Speed Wind Dir Waves Ship Positions

Caribbean Princess

Operator: Princess Cruises

Last reported at 2016-May-25 22:33 UTC. Time now 2016-May-25 22:42 UTC.
Position N 54°34' W 005°06'.

Type: Passenger vessel. MMSI: 310423000.

Date/timePositionNaut miles runAvg speedWind from/ knotsBaromVisibWave heightAir tempDewpointWater temp
2016-May-25 22:33N 54°34' W 005°06'1615.8
2016-May-25 21:33N 54°18' W 005°04'8 7.8
2016-May-25 20:33N 54°16' W 005°17'1818.1
2016-May-25 19:33N 54°34' W 005°17'1615.7
2016-May-25 18:34N 54°44' W 005°39'10 9.7
2016-May-25 17:33N 54°38' W 005°53'1 0.1
2016-May-25 06:24N 54°38' W 005°53'2 2.2
2016-May-25 05:34N 54°39' W 005°51'1010.0
2016-May-25 04:33N 54°44' W 005°36'1414.5
2016-May-25 03:33N 54°34' W 005°18'2341.2
2016-May-25 03:00N 54°12' W 005°06'613.8 050 / 321026.510.8 1.5 9.0 4.5
2016-May-25 02:33N 54°18' W 005°10'1616.1
2016-May-25 01:33N 54°02' W 005°15'5217.2
2016-May-24 22:33N 53°37' W 003°58'1818.5
2016-May-24 21:33N 53°33' W 003°28'1111.3
2016-May-24 20:33N 53°32' W 003°09'8 7.7
2016-May-24 19:33N 53°26' W 003°01'1 1.3
2016-May-24 18:30N 53°24' W 003°00'0 0.0
2016-May-24 17:33N 53°24' W 003°00'0 0.0
2016-May-24 16:33N 53°24' W 003°00'0 0.0
2016-May-24 15:30N 53°24' W 003°00'0 0.0
2016-May-24 14:33N 53°24' W 003°00'0 0.0
2016-May-24 13:30N 53°24' W 003°00'0 0.0
2016-May-24 12:33N 53°24' W 003°00'0 0.0
2016-May-24 11:33N 53°24' W 003°00'0 0.0
2016-May-24 10:33N 53°24' W 003°00'0 0.0
2016-May-24 09:30N 53°24' W 003°00'0 0.0
2016-May-24 08:33N 53°24' W 003°00'0 0.0
2016-May-24 07:30N 53°24' W 003°00'0 0.0
2016-May-24 06:33N 53°24' W 003°00'0 0.1
2016-May-24 05:33N 53°24' W 003°00'8 8.0
2016-May-24 04:34N 53°31' W 003°07'1111.4
2016-May-24 03:33N 53°31' W 003°26'1918.9
2016-May-24 02:33N 53°31' W 003°58'1818.5
2016-May-24 01:33N 53°30' W 004°29'121 4.9
2016-May-23 00:33N 51°58' W 006°39'1111.5
2016-May-22 23:33N 51°55' W 006°57'1211.8
2016-May-22 22:33N 51°52' W 007°15'1211.8
2016-May-22 21:33N 51°49' W 007°34'1211.7
2016-May-22 20:33N 51°46' W 007°52'1211.7
2016-May-22 19:33N 51°43' W 008°10'9 9.4
2016-May-22 18:33N 51°51' W 008°18'0 0.0
2016-May-22 17:31N 51°51' W 008°18'0 0.0
2016-May-22 16:31N 51°51' W 008°18'0 0.0
2016-May-22 15:31N 51°51' W 008°18'0 0.0
2016-May-22 14:31N 51°51' W 008°18'0 0.0
2016-May-22 13:31N 51°51' W 008°18'0 0.0
2016-May-22 12:31N 51°51' W 008°18'0 0.0
2016-May-22 11:31N 51°51' W 008°18'0 0.0
2016-May-22 10:31N 51°51' W 008°18'0 0.0
2016-May-22 09:31N 51°51' W 008°18'0 0.0
2016-May-22 08:31N 51°51' W 008°18'0 0.0
2016-May-22 07:31N 51°51' W 008°18'1 1.5
2016-May-22 06:34N 51°50' W 008°16'1413.6
2016-May-22 05:33N 51°38' W 008°06'2019.9
2016-May-22 04:34N 51°24' W 007°43'8219.5
2016-May-22 00:21N 50°29' W 006°07'1519.1
2016-May-21 23:33N 50°16' W 005°54'2019.9
2016-May-21 22:33N 49°56' W 005°54'2019.8
2016-May-21 21:33N 49°49' W 005°25'2020.3
2016-May-21 20:33N 49°45' W 004°54'2019.6
2016-May-21 19:33N 49°40' W 004°25'1918.8
2016-May-21 18:34N 49°36' W 003°57'1818.2
2016-May-21 17:33N 49°32' W 003°29'1918.3
2016-May-21 16:33N 49°27' W 003°02'4 0.3
2016-May-21 03:05N 49°23' W 003°03'712.0
2016-May-21 02:29N 49°30' W 003°06'1010.9
2016-May-21 01:33N 49°40' W 003°07'1313.3
2016-May-21 00:33N 49°52' W 003°01'1515.1
2016-May-20 23:33N 49°60' W 002°41'2417.3
2016-May-20 22:11N 50°11' W 002°08'3115.8
2016-May-20 20:13N 50°25' W 001°24'1014.8
2016-May-20 19:33N 50°29' W 001°11'1312.9
2016-May-20 18:34N 50°39' W 000°58'1212.5
2016-May-20 17:33N 50°46' W 001°15'9 9.2
2016-May-20 16:33N 50°53' W 001°24'0 0.4
2016-May-20 15:32N 50°53' W 001°24'0 0.0
2016-May-20 14:32N 50°53' W 001°24'0 0.0
2016-May-20 13:32N 50°53' W 001°24'0 0.0
2016-May-20 12:32N 50°53' W 001°24'0 0.0
2016-May-20 11:26N 50°53' W 001°24'0 0.0
2016-May-20 10:32N 50°53' W 001°24'0 0.0
2016-May-20 09:33N 50°53' W 001°24'0 0.0
2016-May-20 08:31N 50°53' W 001°24'0 0.0
2016-May-20 07:31N 50°53' W 001°24'0 0.0
2016-May-20 06:31N 50°53' W 001°24'0 0.0
2016-May-20 05:31N 50°53' W 001°24'0 0.0
2016-May-20 04:28N 50°53' W 001°24'1 1.5
2016-May-20 03:33N 50°52' W 001°23'8 7.7
2016-May-20 02:33N 50°46' W 001°15'1313.3
2016-May-20 01:33N 50°40' W 000°57'1413.7
2016-May-20 00:33N 50°35' W 000°37'1616.0
2016-May-19 23:33N 50°33' W 000°11'1616.0
2016-May-19 22:33N 50°34' E 000°14'1716.6
2016-May-19 21:30N 50°39' E 000°40'1616.3
2016-May-19 20:32N 50°48' E 001°01'1616.8
2016-May-19 19:33N 50°57' E 001°22'1919.1
2016-May-19 18:34N 51°12' E 001°42'1817.7
2016-May-19 17:33N 51°25' E 002°01'1716.9
2016-May-19 16:33N 51°22' E 002°27'1615.6
2016-May-19 15:33N 51°22' E 002°52'1312.7
2016-May-19 14:34N 51°21' E 003°12'1 0.6
2016-May-19 13:33N 51°20' E 003°12'0 0.0
2016-May-19 12:33N 51°20' E 003°12'0 0.0
2016-May-19 11:33N 51°20' E 003°12'0 0.0
2016-May-19 10:33N 51°20' E 003°12'0 0.0
2016-May-19 09:33N 51°20' E 003°12'0 0.0
2016-May-19 08:33N 51°20' E 003°12'0 0.0
2016-May-19 07:33N 51°20' E 003°12'0 0.0
2016-May-19 06:32N 51°20' E 003°12'0 0.0
2016-May-19 05:32N 51°20' E 003°12'0 0.0
2016-May-19 04:33N 51°20' E 003°12'7 7.4
2016-May-19 03:34N 51°24' E 003°03'1313.0
2016-May-19 02:33N 51°24' E 002°42'6112.1
2016-May-18 21:33N 52°24' E 002°37'4811.8
2016-May-18 17:28N 53°11' E 002°15'1212.6
2016-May-18 16:32N 53°19' E 002°01'8311.8
2016-May-18 09:31N 54°29' E 000°47'1111.9
2016-May-18 08:34N 54°38' E 000°34'1211.8
2016-May-18 07:33N 54°46' E 000°20'1211.7
2016-May-18 06:34N 54°55' E 000°07'1211.7
2016-May-18 05:31N 55°04' W 000°08'1111.8
2016-May-18 04:33N 55°13' W 000°21'1611.6
2016-May-18 03:08N 55°25' W 000°40'5511.7
2016-May-17 22:26N 55°59' W 001°56'1112.3
2016-May-17 21:33N 56°03' W 002°14'1212.0
2016-May-17 20:33N 56°06' W 002°35'1212.3
2016-May-17 19:33N 56°04' W 002°56'1010.0
2016-May-17 18:33N 56°02' W 003°14'5 0.8
2016-May-17 12:03N 56°00' W 003°22'0 0.0
2016-May-17 08:09N 56°00' W 003°22'2 0.7
2016-May-17 05:30N 56°01' W 003°20'1111.6
2016-May-17 04:34N 56°04' W 003°01'1514.6
2016-May-17 03:34N 56°09' W 002°36'1716.8
2016-May-17 02:33N 56°22' W 002°18'1817.6
2016-May-17 01:34N 56°36' W 001°58'5819.2
2016-May-16 22:34N 57°32' W 001°34'  
Track history (hours):
 
Tides and Currents Weather Stations Pressure Air Temp Water Temp Dewpoint Dewpoint Depression Visibility Wind Speed Wind Dir Waves Ship Positions

Caribbean Princess

Operator: Princess Cruises

Last reported at 2016-May-25 22:33 UTC. Time now 2016-May-25 22:42 UTC.
Position N 54°34' W 005°06'.

Type: Passenger vessel. MMSI: 310423000.

Date/timePositionNaut miles runAvg speedWind from/ knotsBaromVisibWave heightAir tempDewpointWater temp
2016-May-25 22:33N 54°34' W 005°06'1615.8
2016-May-25 21:33N 54°18' W 005°04'8 7.8
2016-May-25 20:33N 54°16' W 005°17'1818.1
2016-May-25 19:33N 54°34' W 005°17'1615.7
2016-May-25 18:34N 54°44' W 005°39'10 9.7
2016-May-25 17:33N 54°38' W 005°53'1 0.1
2016-May-25 06:24N 54°38' W 005°53'2 2.2
2016-May-25 05:34N 54°39' W 005°51'1010.0
2016-May-25 04:33N 54°44' W 005°36'1414.5
2016-May-25 03:33N 54°34' W 005°18'2341.2
2016-May-25 03:00N 54°12' W 005°06'613.8 050 / 321026.510.8 1.5 9.0 4.5
2016-May-25 02:33N 54°18' W 005°10'1616.1
2016-May-25 01:33N 54°02' W 005°15'5217.2
2016-May-24 22:33N 53°37' W 003°58'1818.5
2016-May-24 21:33N 53°33' W 003°28'1111.3
2016-May-24 20:33N 53°32' W 003°09'8 7.7
2016-May-24 19:33N 53°26' W 003°01'1 1.3
2016-May-24 18:30N 53°24' W 003°00'0 0.0
2016-May-24 17:33N 53°24' W 003°00'0 0.0
2016-May-24 16:33N 53°24' W 003°00'0 0.0
2016-May-24 15:30N 53°24' W 003°00'0 0.0
2016-May-24 14:33N 53°24' W 003°00'0 0.0
2016-May-24 13:30N 53°24' W 003°00'0 0.0
2016-May-24 12:33N 53°24' W 003°00'0 0.0
2016-May-24 11:33N 53°24' W 003°00'0 0.0
2016-May-24 10:33N 53°24' W 003°00'0 0.0
2016-May-24 09:30N 53°24' W 003°00'0 0.0
2016-May-24 08:33N 53°24' W 003°00'0 0.0
2016-May-24 07:30N 53°24' W 003°00'0 0.0
2016-May-24 06:33N 53°24' W 003°00'0 0.1
2016-May-24 05:33N 53°24' W 003°00'8 8.0
2016-May-24 04:34N 53°31' W 003°07'1111.4
2016-May-24 03:33N 53°31' W 003°26'1918.9
2016-May-24 02:33N 53°31' W 003°58'1818.5
2016-May-24 01:33N 53°30' W 004°29'121 4.9
2016-May-23 00:33N 51°58' W 006°39'1111.5
2016-May-22 23:33N 51°55' W 006°57'1211.8
2016-May-22 22:33N 51°52' W 007°15'1211.8
2016-May-22 21:33N 51°49' W 007°34'1211.7
2016-May-22 20:33N 51°46' W 007°52'1211.7
2016-May-22 19:33N 51°43' W 008°10'9 9.4
2016-May-22 18:33N 51°51' W 008°18'0 0.0
2016-May-22 17:31N 51°51' W 008°18'0 0.0
2016-May-22 16:31N 51°51' W 008°18'0 0.0
2016-May-22 15:31N 51°51' W 008°18'0 0.0
2016-May-22 14:31N 51°51' W 008°18'0 0.0
2016-May-22 13:31N 51°51' W 008°18'0 0.0
2016-May-22 12:31N 51°51' W 008°18'0 0.0
2016-May-22 11:31N 51°51' W 008°18'0 0.0
2016-May-22 10:31N 51°51' W 008°18'0 0.0
2016-May-22 09:31N 51°51' W 008°18'0 0.0
2016-May-22 08:31N 51°51' W 008°18'0 0.0
2016-May-22 07:31N 51°51' W 008°18'1 1.5
2016-May-22 06:34N 51°50' W 008°16'1413.6
2016-May-22 05:33N 51°38' W 008°06'2019.9
2016-May-22 04:34N 51°24' W 007°43'8219.5
2016-May-22 00:21N 50°29' W 006°07'1519.1
2016-May-21 23:33N 50°16' W 005°54'2019.9
2016-May-21 22:33N 49°56' W 005°54'2019.8
2016-May-21 21:33N 49°49' W 005°25'2020.3
2016-May-21 20:33N 49°45' W 004°54'2019.6
2016-May-21 19:33N 49°40' W 004°25'1918.8
2016-May-21 18:34N 49°36' W 003°57'1818.2
2016-May-21 17:33N 49°32' W 003°29'1918.3
2016-May-21 16:33N 49°27' W 003°02'4 0.3
2016-May-21 03:05N 49°23' W 003°03'712.0
2016-May-21 02:29N 49°30' W 003°06'1010.9
2016-May-21 01:33N 49°40' W 003°07'1313.3
2016-May-21 00:33N 49°52' W 003°01'1515.1
2016-May-20 23:33N 49°60' W 002°41'2417.3
2016-May-20 22:11N 50°11' W 002°08'3115.8
2016-May-20 20:13N 50°25' W 001°24'1014.8
2016-May-20 19:33N 50°29' W 001°11'1312.9
2016-May-20 18:34N 50°39' W 000°58'1212.5
2016-May-20 17:33N 50°46' W 001°15'9 9.2
2016-May-20 16:33N 50°53' W 001°24'0 0.4
2016-May-20 15:32N 50°53' W 001°24'0 0.0
2016-May-20 14:32N 50°53' W 001°24'0 0.0
2016-May-20 13:32N 50°53' W 001°24'0 0.0
2016-May-20 12:32N 50°53' W 001°24'0 0.0
2016-May-20 11:26N 50°53' W 001°24'0 0.0
2016-May-20 10:32N 50°53' W 001°24'0 0.0
2016-May-20 09:33N 50°53' W 001°24'0 0.0
2016-May-20 08:31N 50°53' W 001°24'0 0.0
2016-May-20 07:31N 50°53' W 001°24'0 0.0
2016-May-20 06:31N 50°53' W 001°24'0 0.0
2016-May-20 05:31N 50°53' W 001°24'0 0.0
2016-May-20 04:28N 50°53' W 001°24'1 1.5
2016-May-20 03:33N 50°52' W 001°23'8 7.7
2016-May-20 02:33N 50°46' W 001°15'1313.3
2016-May-20 01:33N 50°40' W 000°57'1413.7
2016-May-20 00:33N 50°35' W 000°37'1616.0
2016-May-19 23:33N 50°33' W 000°11'1616.0
2016-May-19 22:33N 50°34' E 000°14'1716.6
2016-May-19 21:30N 50°39' E 000°40'1616.3
2016-May-19 20:32N 50°48' E 001°01'1616.8
2016-May-19 19:33N 50°57' E 001°22'1919.1
2016-May-19 18:34N 51°12' E 001°42'1817.7
2016-May-19 17:33N 51°25' E 002°01'1716.9
2016-May-19 16:33N 51°22' E 002°27'1615.6
2016-May-19 15:33N 51°22' E 002°52'1312.7
2016-May-19 14:34N 51°21' E 003°12'1 0.6
2016-May-19 13:33N 51°20' E 003°12'0 0.0
2016-May-19 12:33N 51°20' E 003°12'0 0.0
2016-May-19 11:33N 51°20' E 003°12'0 0.0
2016-May-19 10:33N 51°20' E 003°12'0 0.0
2016-May-19 09:33N 51°20' E 003°12'0 0.0
2016-May-19 08:33N 51°20' E 003°12'0 0.0
2016-May-19 07:33N 51°20' E 003°12'0 0.0
2016-May-19 06:32N 51°20' E 003°12'0 0.0
2016-May-19 05:32N 51°20' E 003°12'0 0.0
2016-May-19 04:33N 51°20' E 003°12'7 7.4
2016-May-19 03:34N 51°24' E 003°03'1313.0
2016-May-19 02:33N 51°24' E 002°42'6112.1
2016-May-18 21:33N 52°24' E 002°37'4811.8
2016-May-18 17:28N 53°11' E 002°15'1212.6
2016-May-18 16:32N 53°19' E 002°01'8311.8
2016-May-18 09:31N 54°29' E 000°47'1111.9
2016-May-18 08:34N 54°38' E 000°34'1211.8
2016-May-18 07:33N 54°46' E 000°20'1211.7
2016-May-18 06:34N 54°55' E 000°07'1211.7
2016-May-18 05:31N 55°04' W 000°08'1111.8
2016-May-18 04:33N 55°13' W 000°21'1611.6
2016-May-18 03:08N 55°25' W 000°40'5511.7
2016-May-17 22:26N 55°59' W 001°56'1112.3
2016-May-17 21:33N 56°03' W 002°14'1212.0
2016-May-17 20:33N 56°06' W 002°35'1212.3
2016-May-17 19:33N 56°04' W 002°56'1010.0
2016-May-17 18:33N 56°02' W 003°14'5 0.8
2016-May-17 12:03N 56°00' W 003°22'0 0.0
2016-May-17 08:09N 56°00' W 003°22'2 0.7
2016-May-17 05:30N 56°01' W 003°20'1111.6
2016-May-17 04:34N 56°04' W 003°01'1514.6
2016-May-17 03:34N 56°09' W 002°36'1716.8
2016-May-17 02:33N 56°22' W 002°18'1817.6
2016-May-17 01:34N 56°36' W 001°58'5819.2
2016-May-16 22:34N 57°32' W 001°34'  

Dump ship's entire track history